»·PEaware :: N132KT KDLS-KSJC

N132KT :: KDLS-KSJC

FLIGHT INFORMATION

Flight Status: Arrived
Operator: Privately registered:
United States
More flights under this callsign
Pilot: Keith S. (1)
Aircraft: MITSUBISHI MU-2 MARQUISE
(MU2)
More flights by this aircraft type
Origin: KDLS Columbia Gorge Regl/The Dalle
United States
Destination: KSJC Mineta San Jose Intl
United States
More flights between these airports :: More routes between these airports
Route: LTJ DSD ORCCA RISTI1
File this flight plan on PilotEdge
Remarks:
Altitude:
(Current/Filed)
24,000ft
Speed:
(Current/Filed)
320kts
Departed: 25-Oct-19 04:57 AM
Arrived: 25-Oct-19 07:17 AM
Distance/Time
Traveled:
496nm/2:20
Distance/Time
To Go:
Arrived

Flight Plot

Page will automatically refresh every two minutes.

Flight plan parsing failed; only flown route is shown


Map Options




Map Legend


Flown Route
Filed Route
Departure Airport
Arrival Airport
Navaid (VOR, NDB)
Fix

Horizontal Profiles

Position Reports

Time Latitude Longitude Heading Altitude Ground
Speed
25-Oct-19 04:51 45.618945 -121.172297 114 216ft 0kts
25-Oct-19 04:52 45.619308 -121.171962 303 216ft 0kts
25-Oct-19 04:53 45.619332 -121.175411 283 216ft 12kts
25-Oct-19 04:54 45.620136 -121.176994 310 216ft 0kts
25-Oct-19 04:55 45.620136 -121.176994 310 216ft 0kts
25-Oct-19 04:56 45.620869 -121.175027 88 216ft 68kts
25-Oct-19 04:57 45.614818 -121.121786 135 1609ft 167kts
25-Oct-19 04:58 45.573933 -121.099446 174 3824ft 176kts
25-Oct-19 04:59 45.555657 -121.050876 47 5928ft 205kts
25-Oct-19 05:00 45.610176 -121.061614 334 8231ft 212kts
25-Oct-19 05:01 45.666491 -121.085251 341 10666ft 211kts
25-Oct-19 05:02 45.699929 -121.130382 235 12708ft 192kts
25-Oct-19 05:03 45.645616 -121.116110 173 14903ft 217kts
25-Oct-19 05:04 45.587281 -121.118836 194 16854ft 215kts
25-Oct-19 05:05 45.526858 -121.127398 194 18788ft 222kts
25-Oct-19 05:06 45.464422 -121.136216 195 20631ft 229kts
25-Oct-19 05:07 45.400135 -121.145275 195 22375ft 236kts
25-Oct-19 05:08 45.333535 -121.154641 195 24034ft 244kts
25-Oct-19 05:09 45.259523 -121.165021 194 24240ft 290kts
25-Oct-19 05:10 45.175862 -121.176639 194 24222ft 303kts
25-Oct-19 05:11 45.092630 -121.188322 194 24222ft 298kts
25-Oct-19 05:12 45.010413 -121.199772 194 24223ft 297kts
25-Oct-19 05:13 44.928069 -121.211188 193 24229ft 297kts
25-Oct-19 05:14 44.845602 -121.222585 193 24253ft 298kts
25-Oct-19 05:15 44.763075 -121.233962 193 24269ft 298kts
25-Oct-19 05:16 44.680245 -121.245348 193 24269ft 299kts
25-Oct-19 05:17 44.597292 -121.256720 193 24269ft 299kts
25-Oct-19 05:18 44.514390 -121.268052 193 24269ft 299kts
25-Oct-19 05:19 44.431418 -121.279361 193 24269ft 299kts
25-Oct-19 05:20 44.348297 -121.290659 193 24269ft 299kts
25-Oct-19 05:21 44.265338 -121.301904 193 24271ft 299kts
25-Oct-19 05:22 44.181299 -121.306942 190 24276ft 302kts
25-Oct-19 05:23 44.097245 -121.310860 190 24278ft 303kts
25-Oct-19 05:24 44.012569 -121.314794 190 24277ft 303kts
25-Oct-19 05:25 43.928212 -121.318702 190 24277ft 303kts
25-Oct-19 05:26 43.843333 -121.322620 190 24278ft 304kts
25-Oct-19 05:27 43.758697 -121.326519 190 24278ft 304kts
25-Oct-19 05:28 43.674266 -121.330395 190 24278ft 304kts
25-Oct-19 05:29 43.589591 -121.334274 190 24278ft 304kts
25-Oct-19 05:30 43.504886 -121.338144 190 24277ft 304kts
25-Oct-19 05:31 43.420266 -121.341999 190 24277ft 304kts
25-Oct-19 05:32 43.335512 -121.345851 190 24277ft 304kts
25-Oct-19 05:33 43.251041 -121.349681 190 24277ft 304kts
25-Oct-19 05:34 43.166493 -121.353498 190 24287ft 303kts
25-Oct-19 05:35 43.082135 -121.357297 190 24326ft 302kts
25-Oct-19 05:36 42.998050 -121.361111 189 24350ft 301kts
25-Oct-19 05:37 42.913809 -121.364900 189 24351ft 304kts
25-Oct-19 05:38 42.829552 -121.368626 188 24351ft 306kts
25-Oct-19 05:39 42.743906 -121.372432 188 24351ft 308kts
25-Oct-19 05:40 42.658043 -121.376247 188 24351ft 308kts
25-Oct-19 05:41 42.572391 -121.380042 188 24351ft 308kts
25-Oct-19 05:42 42.486308 -121.383846 188 24351ft 308kts
25-Oct-19 05:43 42.400421 -121.387631 188 24351ft 308kts
25-Oct-19 05:44 42.314405 -121.391411 188 24351ft 308kts
25-Oct-19 05:45 42.228618 -121.395172 188 24351ft 308kts
25-Oct-19 05:46 42.142523 -121.398935 188 24351ft 308kts
25-Oct-19 05:47 42.056440 -121.402687 188 24351ft 309kts
25-Oct-19 05:48 41.970601 -121.406419 188 24351ft 309kts
25-Oct-19 05:49 41.885577 -121.410105 188 24351ft 309kts
25-Oct-19 05:50 41.799487 -121.413826 188 24350ft 308kts
25-Oct-19 05:51 41.713535 -121.417532 188 24351ft 308kts
25-Oct-19 06:11 41.669530 -121.419428 188 24360ft 308kts
25-Oct-19 06:12 41.583491 -121.423122 188 24360ft 309kts
25-Oct-19 06:13 41.497150 -121.426822 188 24360ft 309kts
25-Oct-19 06:14 41.410934 -121.430504 188 24361ft 309kts
25-Oct-19 06:15 41.324898 -121.434170 188 24366ft 309kts
25-Oct-19 06:16 41.238920 -121.437824 188 24369ft 309kts
25-Oct-19 06:17 41.152895 -121.441471 188 24368ft 309kts
25-Oct-19 06:18 41.066517 -121.445186 186 24318ft 307kts
25-Oct-19 06:19 40.981789 -121.448772 184 24215ft 302kts
25-Oct-19 06:20 40.899594 -121.452167 183 24176ft 298kts
25-Oct-19 06:21 40.816366 -121.455675 183 24180ft 297kts
25-Oct-19 06:22 40.733715 -121.459107 183 24180ft 297kts
25-Oct-19 06:23 40.651047 -121.462503 183 24179ft 297kts
25-Oct-19 06:24 40.568389 -121.466003 183 24182ft 296kts
25-Oct-19 06:25 40.485709 -121.469450 183 24186ft 296kts
25-Oct-19 06:26 40.403035 -121.472876 183 24187ft 297kts
25-Oct-19 06:27 40.320441 -121.476279 183 24187ft 297kts
25-Oct-19 06:28 40.237760 -121.479687 183 24187ft 297kts
25-Oct-19 06:29 40.155204 -121.483084 183 24187ft 297kts
25-Oct-19 06:30 40.072546 -121.486468 183 24187ft 296kts
25-Oct-19 06:31 39.989856 -121.489838 183 24186ft 296kts
25-Oct-19 06:33 39.907329 -121.493185 183 24182ft 296kts
25-Oct-19 06:34 39.829990 -121.496304 183 24182ft 297kts
25-Oct-19 06:35 39.747725 -121.499619 183 24181ft 297kts
25-Oct-19 06:36 39.664686 -121.502963 183 24180ft 297kts
25-Oct-19 06:37 39.582274 -121.506276 183 24179ft 297kts
25-Oct-19 06:38 39.499668 -121.509589 183 24178ft 296kts
25-Oct-19 06:39 39.416818 -121.512898 183 24168ft 296kts
25-Oct-19 06:40 39.334297 -121.516188 183 24159ft 296kts
25-Oct-19 06:41 39.251541 -121.519486 183 24158ft 296kts
25-Oct-19 06:42 39.169277 -121.522756 183 24156ft 296kts
25-Oct-19 06:43 39.087092 -121.526016 183 24156ft 295kts
25-Oct-19 06:44 39.004627 -121.529265 184 24155ft 296kts
25-Oct-19 06:45 38.921484 -121.532687 184 24156ft 301kts
25-Oct-19 06:46 38.841511 -121.535874 184 24159ft 307kts
25-Oct-19 06:47 38.755238 -121.539168 184 24164ft 310kts
25-Oct-19 06:48 38.668549 -121.542522 184 24166ft 311kts
25-Oct-19 06:49 38.581825 -121.545892 184 24164ft 312kts
25-Oct-19 06:50 38.494776 -121.549292 184 24164ft 312kts
25-Oct-19 06:51 38.407578 -121.546361 176 24164ft 314kts
25-Oct-19 06:52 38.320558 -121.534845 176 24162ft 314kts
25-Oct-19 06:53 38.232667 -121.522980 176 23657ft 328kts
25-Oct-19 06:54 38.141432 -121.510171 176 22474ft 326kts
25-Oct-19 06:54 38.066796 -121.500256 176 21547ft 320kts
25-Oct-19 06:55 37.978422 -121.488562 176 20503ft 315kts
25-Oct-19 06:57 37.879411 -121.475357 176 19024ft 308kts
25-Oct-19 06:57 37.808777 -121.466413 177 17916ft 304kts
25-Oct-19 06:58 37.725145 -121.456775 175 16639ft 299kts
25-Oct-19 06:59 37.647528 -121.469631 226 15402ft 285kts
25-Oct-19 07:00 37.598653 -121.547167 233 14243ft 279kts
25-Oct-19 07:01 37.550995 -121.622404 231 12480ft 271kts
25-Oct-19 07:02 37.502652 -121.693992 230 10274ft 266kts
25-Oct-19 07:03 37.482710 -121.723543 229 9516ft 257kts
25-Oct-19 07:04 37.482710 -121.723543 229 9516ft 257kts
25-Oct-19 07:05 37.482710 -121.723543 229 9516ft 257kts
25-Oct-19 07:06 37.482710 -121.723543 229 9516ft 257kts
25-Oct-19 07:07 37.482710 -121.723543 229 9516ft 257kts
25-Oct-19 07:08 37.482710 -121.723543 229 9516ft 257kts
25-Oct-19 07:09 37.482710 -121.723543 229 9516ft 257kts
25-Oct-19 07:10 37.482710 -121.723543 229 9516ft 257kts
25-Oct-19 07:11 37.441926 -121.780033 228 8083ft 251kts
25-Oct-19 07:12 37.393288 -121.847031 232 5833ft 233kts
25-Oct-19 07:13 37.381645 -121.899072 265 1890ft 144kts
25-Oct-19 07:14 37.355745 -121.900023 135 1280ft 132kts
25-Oct-19 07:15 37.359454 -121.923148 319 46ft 99kts
25-Oct-19 07:16 37.366208 -121.930569 320 46ft 16kts
25-Oct-19 07:17 37.367495 -121.933840 227 46ft 0kts
25-Oct-19 07:18 37.367495 -121.933840 227 46ft 0kts
25-Oct-19 07:19 37.365021 -121.936907 141 46ft 10kts
25-Oct-19 07:20 37.363827 -121.937082 204 46ft 0kts
25-Oct-19 07:21 37.363827 -121.937082 204 46ft 0kts
25-Oct-19 07:22 37.363827 -121.937082 204 46ft 0kts

Navigation Log

Ident Type
Flight plan parsing failed, navigation log unavailable